createdAt,value
2018-01-05T00:00:09.385Z,0
2018-01-05T00:01:18.835Z,0
2018-01-05T00:02:28.823Z,0
2018-01-05T00:03:38.804Z,0
2018-01-05T00:04:48.784Z,0
2018-01-05T00:05:58.503Z,0
2018-01-05T00:07:08.541Z,0
2018-01-05T00:08:18.527Z,0
2018-01-05T00:09:27.981Z,0
2018-01-05T00:10:38.024Z,0
2018-01-05T00:11:48.010Z,0
2018-01-05T00:12:57.994Z,0
2018-01-05T00:14:07.709Z,0
2018-01-05T00:15:17.694Z,0
2018-01-05T00:16:27.678Z,0
2018-01-05T00:17:37.673Z,0
2018-01-05T00:18:47.657Z,0
2018-01-05T00:19:57.374Z,0
2018-01-05T00:21:06.851Z,0
2018-01-05T00:22:16.572Z,0
2018-01-05T00:23:26.554Z,0
2018-01-05T00:24:36.541Z,0
2018-01-05T00:25:46.316Z,0
2018-01-05T00:26:56.301Z,0
2018-01-05T00:28:06.291Z,0
2018-01-05T00:29:16.281Z,0
2018-01-05T00:30:26.266Z,0
2018-01-05T00:31:36.298Z,0
2018-01-05T00:32:46.284Z,0
2018-01-05T00:33:56.268Z,0
2018-01-05T00:35:05.989Z,0
2018-01-05T00:36:15.972Z,0
2018-01-05T00:37:25.688Z,0
2018-01-05T00:38:35.672Z,0
2018-01-05T00:39:45.655Z,0
2018-01-05T00:40:55.111Z,0
2018-01-05T00:42:04.305Z,0
2018-01-05T00:43:14.291Z,0
2018-01-05T00:44:24.279Z,0
2018-01-05T00:45:34.000Z,0
2018-01-05T00:46:43.993Z,0
2018-01-05T00:47:53.976Z,0
2018-01-05T00:49:03.712Z,0
2018-01-05T00:50:13.426Z,0
2018-01-05T00:51:23.413Z,0
2018-01-05T00:52:33.405Z,0
2018-01-05T00:53:43.385Z,0
2018-01-05T00:54:53.368Z,0
2018-01-05T00:56:03.352Z,0
2018-01-05T00:57:12.811Z,0
2018-01-05T00:58:22.795Z,0
2018-01-05T00:59:32.775Z,0
2018-01-05T01:00:42.764Z,0
2018-01-05T01:01:52.754Z,0
2018-01-05T01:03:02.743Z,0
2018-01-05T01:04:12.462Z,0
2018-01-05T01:05:21.922Z,0
2018-01-05T01:06:31.917Z,0
2018-01-05T01:07:41.898Z,0
2018-01-05T01:08:51.879Z,0
2018-01-05T01:10:01.597Z,0
2018-01-05T01:11:11.586Z,0
2018-01-05T01:12:21.306Z,0
2018-01-05T01:13:31.289Z,0
2018-01-05T01:14:41.279Z,0
2018-01-05T01:15:50.996Z,0
2018-01-05T01:17:01.033Z,0
2018-01-05T01:18:10.753Z,0
2018-01-05T01:19:20.748Z,0
2018-01-05T01:20:30.725Z,0
2018-01-05T01:21:40.725Z,0
2018-01-05T01:22:50.709Z,0
2018-01-05T01:24:00.426Z,0
2018-01-05T01:25:10.414Z,0
2018-01-05T01:26:20.401Z,0
2018-01-05T01:27:30.388Z,0
2018-01-05T01:28:40.369Z,0
2018-01-05T01:29:50.373Z,0
2018-01-05T01:31:00.353Z,0
2018-01-05T01:32:10.077Z,0
2018-01-05T01:33:20.069Z,0
2018-01-05T01:34:30.061Z,0
2018-01-05T01:35:40.047Z,0
2018-01-05T01:36:49.770Z,0
2018-01-05T01:37:59.754Z,0
2018-01-05T01:39:08.940Z,0
2018-01-05T01:40:18.659Z,0
2018-01-05T01:41:28.377Z,0
2018-01-05T01:42:38.353Z,0
2018-01-05T01:43:48.070Z,0
2018-01-05T01:44:57.789Z,0
2018-01-05T01:46:06.980Z,0
2018-01-05T01:47:16.972Z,0
2018-01-05T01:48:26.953Z,0
2018-01-05T01:49:36.939Z,0
2018-01-05T01:50:46.668Z,0
2018-01-05T01:51:56.650Z,0
2018-01-05T01:53:06.371Z,0
2018-01-05T01:54:16.355Z,0
2018-01-05T01:55:26.342Z,0
2018-01-05T01:56:36.326Z,0
2018-01-05T01:57:46.306Z,0
2018-01-05T01:58:56.297Z,0
2018-01-05T02:00:06.014Z,0
2018-01-05T02:01:15.736Z,0
2018-01-05T02:02:25.456Z,0
2018-01-05T02:03:35.436Z,0
2018-01-05T02:04:45.428Z,0
2018-01-05T02:05:55.424Z,0
2018-01-05T02:07:04.879Z,0
2018-01-05T02:08:14.865Z,0
2018-01-05T02:09:24.053Z,0
2018-01-05T02:10:34.032Z,0
2018-01-05T02:11:44.012Z,0
2018-01-05T02:12:53.733Z,0
2018-01-05T02:14:03.717Z,0
2018-01-05T02:15:13.704Z,0
2018-01-05T02:16:23.413Z,0
2018-01-05T02:17:32.599Z,0
2018-01-05T02:18:42.313Z,0
2018-01-05T02:19:52.033Z,0
2018-01-05T02:21:01.756Z,0
2018-01-05T02:22:11.752Z,0
2018-01-05T02:23:23.470Z,0
2018-01-05T02:24:33.462Z,0
2018-01-05T02:25:43.179Z,0
2018-01-05T02:26:53.163Z,0
2018-01-05T02:28:02.933Z,0
2018-01-05T02:29:12.913Z,0
2018-01-05T02:30:22.900Z,0
2018-01-05T02:31:32.887Z,0
2018-01-05T02:32:42.871Z,0
2018-01-05T02:33:52.857Z,0
2018-01-05T02:35:02.842Z,0
2018-01-05T02:36:12.833Z,0
2018-01-05T02:37:22.820Z,0
2018-01-05T02:38:32.810Z,0
2018-01-05T02:39:42.795Z,0
2018-01-05T02:40:52.799Z,0
2018-01-05T02:42:02.790Z,0
2018-01-05T02:43:12.515Z,0
2018-01-05T02:44:22.497Z,0
2018-01-05T02:45:32.480Z,0
2018-01-05T02:46:42.205Z,0
2018-01-05T02:47:52.198Z,0
2018-01-05T02:49:01.923Z,0
2018-01-05T02:50:11.913Z,0
2018-01-05T02:51:21.896Z,0
2018-01-05T02:52:31.875Z,0
2018-01-05T02:53:41.870Z,0
2018-01-05T02:54:51.852Z,0
2018-01-05T02:56:01.582Z,0
2018-01-05T02:57:11.302Z,0
2018-01-05T02:58:21.291Z,0
2018-01-05T02:59:31.286Z,0
2018-01-05T03:00:41.006Z,0
2018-01-05T03:01:50.984Z,0
2018-01-05T03:03:00.966Z,0
2018-01-05T03:04:10.948Z,0
2018-01-05T03:05:20.928Z,0
2018-01-05T03:06:30.912Z,0
2018-01-05T03:07:40.893Z,0
2018-01-05T03:08:50.876Z,0
2018-01-05T03:10:00.860Z,0
2018-01-05T03:11:10.862Z,0
2018-01-05T03:12:20.849Z,0
2018-01-05T03:13:30.565Z,0
2018-01-05T03:14:40.287Z,0
2018-01-05T03:15:50.267Z,0
2018-01-05T03:17:00.252Z,0
2018-01-05T03:18:10.231Z,0
2018-01-05T03:19:20.212Z,0
2018-01-05T03:20:30.198Z,0
2018-01-05T03:21:40.186Z,0
2018-01-05T03:22:50.165Z,0
2018-01-05T03:24:00.156Z,0
2018-01-05T03:25:09.877Z,0
2018-01-05T03:26:19.860Z,0
2018-01-05T03:27:29.846Z,0
2018-01-05T03:28:39.563Z,0
2018-01-05T03:29:49.279Z,0
2018-01-05T03:30:59.295Z,0
2018-01-05T03:32:09.025Z,0
2018-01-05T03:33:19.006Z,0
2018-01-05T03:34:28.984Z,0
2018-01-05T03:35:38.981Z,0
2018-01-05T03:36:48.962Z,0
2018-01-05T03:37:58.682Z,0
2018-01-05T03:39:08.401Z,0
2018-01-05T03:40:18.445Z,0
2018-01-05T03:41:28.425Z,0
2018-01-05T03:42:38.412Z,0
2018-01-05T03:43:48.401Z,0
2018-01-05T03:44:58.386Z,0
2018-01-05T03:46:07.842Z,0
2018-01-05T03:47:17.559Z,0
2018-01-05T03:48:27.274Z,0
2018-01-05T03:49:37.257Z,0
2018-01-05T03:50:47.243Z,0
2018-01-05T03:51:57.226Z,0
2018-01-05T03:53:06.948Z,0
2018-01-05T03:54:16.930Z,0
2018-01-05T03:55:26.909Z,0
2018-01-05T03:56:36.891Z,0
2018-01-05T03:57:46.928Z,0
2018-01-05T03:58:56.911Z,0
2018-01-05T04:00:06.930Z,0
2018-01-05T04:03:49.219Z,0
2018-01-05T04:04:59.203Z,0
2018-01-05T04:06:09.192Z,0
2018-01-05T04:07:19.187Z,0
2018-01-05T04:08:28.644Z,0
2018-01-05T04:09:38.627Z,0
2018-01-05T04:10:48.607Z,0
2018-01-05T04:11:58.329Z,0
2018-01-05T04:13:08.311Z,0
2018-01-05T04:14:18.303Z,0
2018-01-05T04:15:28.020Z,0
2018-01-05T04:16:37.736Z,0
2018-01-05T04:17:47.458Z,0
2018-01-05T04:18:57.436Z,0
2018-01-05T04:20:07.422Z,0
2018-01-05T04:21:16.877Z,0
2018-01-05T04:22:26.855Z,0
2018-01-05T04:23:36.572Z,0
2018-01-05T04:24:46.557Z,0
2018-01-05T04:25:56.535Z,0
2018-01-05T04:27:05.986Z,0
2018-01-05T04:28:15.982Z,0
2018-01-05T04:29:25.962Z,0
2018-01-05T04:30:35.678Z,0
2018-01-05T04:31:45.658Z,0
2018-01-05T04:32:55.640Z,0
2018-01-05T04:34:05.621Z,0
2018-01-05T04:35:15.602Z,0
2018-01-05T04:36:25.322Z,0
2018-01-05T04:37:35.311Z,0
2018-01-05T04:38:45.032Z,0
2018-01-05T04:39:55.010Z,0
2018-01-05T04:41:04.742Z,0
2018-01-05T04:42:14.718Z,0
2018-01-05T04:43:24.741Z,0
2018-01-05T04:44:34.727Z,0
2018-01-05T04:45:44.713Z,0
2018-01-05T04:46:54.693Z,0
2018-01-05T04:48:04.409Z,0
2018-01-05T04:49:14.130Z,0
2018-01-05T04:50:23.848Z,0
2018-01-05T04:51:33.567Z,0
2018-01-05T04:52:43.548Z,0
2018-01-05T04:53:53.524Z,0
2018-01-05T04:55:03.248Z,0
2018-01-05T04:56:13.234Z,0
2018-01-05T04:57:22.948Z,0
2018-01-05T04:58:32.934Z,0
2018-01-05T04:59:42.918Z,0
2018-01-05T05:00:52.899Z,0
2018-01-05T05:02:02.864Z,0
2018-01-05T05:03:12.849Z,0
2018-01-05T05:04:22.839Z,0
2018-01-05T05:05:32.825Z,0
2018-01-05T05:06:42.805Z,0
2018-01-05T05:07:52.790Z,0
2018-01-05T05:09:02.779Z,0
2018-01-05T05:10:12.764Z,0
2018-01-05T05:11:22.743Z,0
2018-01-05T05:12:32.733Z,0
2018-01-05T05:13:42.715Z,0
2018-01-05T05:14:52.697Z,0
2018-01-05T05:16:02.416Z,0
2018-01-05T05:17:12.133Z,0
2018-01-05T05:18:22.124Z,0
2018-01-05T05:19:32.111Z,0
2018-01-05T05:20:42.090Z,0
2018-01-05T05:21:52.078Z,0
2018-01-05T05:23:01.804Z,0
2018-01-05T05:24:11.258Z,0
2018-01-05T05:25:21.238Z,0
2018-01-05T05:26:31.224Z,0
2018-01-05T05:27:41.204Z,0
2018-01-05T05:28:50.923Z,0
2018-01-05T05:30:00.903Z,0
2018-01-05T05:31:10.621Z,0
2018-01-05T05:32:20.599Z,0
2018-01-05T05:33:30.588Z,0
2018-01-05T05:34:40.569Z,0
2018-01-05T05:35:50.550Z,0
2018-01-05T05:37:00.272Z,0
2018-01-05T05:38:09.466Z,0
2018-01-05T05:39:19.447Z,0
2018-01-05T05:40:29.428Z,0
2018-01-05T05:41:39.150Z,0
2018-01-05T05:42:49.129Z,0
2018-01-05T05:43:58.854Z,0
2018-01-05T05:45:08.845Z,0
2018-01-05T05:46:18.831Z,0
2018-01-05T05:47:28.553Z,0
2018-01-05T05:48:38.535Z,0
2018-01-05T05:49:48.517Z,0
2018-01-05T05:50:58.507Z,0
2018-01-05T05:52:07.957Z,0
2018-01-05T05:53:17.938Z,0
2018-01-05T05:54:27.925Z,0
2018-01-05T05:55:37.963Z,0
2018-01-05T05:56:47.684Z,0
2018-01-05T05:57:57.665Z,0
2018-01-05T05:59:07.117Z,0
2018-01-05T06:00:16.565Z,0
2018-01-05T06:01:26.286Z,0
2018-01-05T06:02:36.269Z,0
2018-01-05T06:03:46.254Z,0
2018-01-05T06:04:56.242Z,0
2018-01-05T06:06:06.001Z,0
2018-01-05T06:07:15.981Z,0
2018-01-05T06:08:25.961Z,0
2018-01-05T06:09:35.939Z,0
2018-01-05T06:10:45.654Z,0
2018-01-05T06:11:55.636Z,0
2018-01-05T06:13:05.350Z,0
2018-01-05T06:14:15.332Z,0
2018-01-05T06:15:25.376Z,0
2018-01-05T06:16:35.090Z,0
2018-01-05T06:17:44.984Z,0
2018-01-05T06:18:54.972Z,0
2018-01-05T06:20:04.961Z,0
2018-01-05T06:21:14.680Z,0
2018-01-05T06:22:24.665Z,0
2018-01-05T06:23:34.649Z,0
2018-01-05T06:24:44.648Z,0
2018-01-05T06:25:54.367Z,0
2018-01-05T06:27:03.821Z,0
2018-01-05T06:28:13.542Z,0
2018-01-05T06:29:23.526Z,0
2018-01-05T06:30:33.551Z,0
2018-01-05T06:31:43.538Z,0
2018-01-05T06:32:53.255Z,0
2018-01-05T06:34:02.973Z,0
2018-01-05T06:35:12.692Z,0
2018-01-05T06:36:22.406Z,0
2018-01-05T06:37:32.138Z,0
2018-01-05T06:38:42.120Z,0
2018-01-05T06:39:52.100Z,0
2018-01-05T06:41:01.822Z,0
2018-01-05T06:42:11.806Z,0
2018-01-05T06:43:21.782Z,0
2018-01-05T06:44:31.774Z,0
2018-01-05T06:45:42.323Z,0
2018-01-05T06:46:54.916Z,0
2018-01-05T06:48:04.896Z,0
2018-01-05T06:49:14.884Z,0
2018-01-05T06:50:25.315Z,0
2018-01-05T06:51:35.295Z,0
2018-01-05T06:52:45.277Z,0
2018-01-05T06:53:55.259Z,0
2018-01-05T06:55:04.992Z,0
2018-01-05T06:56:14.788Z,0
2018-01-05T06:57:24.768Z,0
2018-01-05T06:58:36.749Z,0
2018-01-05T06:59:46.755Z,0
2018-01-05T07:00:56.743Z,0
2018-01-05T07:02:05.952Z,0
2018-01-05T07:03:15.690Z,0
2018-01-05T07:04:25.683Z,0
2018-01-05T07:05:35.394Z,0
2018-01-05T07:06:45.108Z,0
2018-01-05T07:07:54.558Z,0
2018-01-05T07:09:04.645Z,0
2018-01-05T07:10:14.429Z,0
2018-01-05T07:11:23.885Z,0
2018-01-05T07:12:33.610Z,0
2018-01-05T07:13:43.592Z,0
2018-01-05T07:14:53.569Z,0
2018-01-05T07:16:03.600Z,0
2018-01-05T07:17:13.581Z,0
2018-01-05T07:18:23.569Z,0
2018-01-05T07:19:33.016Z,0
2018-01-05T07:20:42.733Z,0
2018-01-05T07:21:52.707Z,0
2018-01-05T07:23:02.425Z,0
2018-01-05T07:24:12.140Z,0
2018-01-05T07:25:22.131Z,0
2018-01-05T07:26:32.117Z,0
2018-01-05T07:27:42.104Z,0
2018-01-05T07:28:52.081Z,4
2018-01-05T07:30:01.802Z,4
2018-01-05T07:31:11.529Z,0
2018-01-05T07:32:21.509Z,4
2018-01-05T07:33:31.224Z,4
2018-01-05T07:34:41.210Z,0
2018-01-05T07:35:51.189Z,0
2018-01-05T07:37:00.907Z,4
2018-01-05T07:38:10.895Z,4
2018-01-05T07:39:21.128Z,0
2018-01-05T07:40:31.108Z,4
2018-01-05T07:41:40.869Z,4
2018-01-05T07:42:50.856Z,4
2018-01-05T07:44:00.575Z,8
2018-01-05T07:45:10.027Z,4
2018-01-05T07:46:19.741Z,8
2018-01-05T07:47:29.724Z,8
2018-01-05T07:48:39.703Z,8
2018-01-05T07:49:49.686Z,12
2018-01-05T07:50:59.409Z,12
2018-01-05T07:52:09.140Z,16
2018-01-05T07:53:19.119Z,16
2018-01-05T07:54:29.099Z,16
2018-01-05T07:55:39.085Z,24
2018-01-05T07:56:49.067Z,24
2018-01-05T07:57:58.796Z,24
2018-01-05T07:59:08.512Z,32
2018-01-05T08:00:18.227Z,32
2018-01-05T08:01:28.206Z,36
2018-01-05T08:02:41.372Z,40
2018-01-05T08:03:51.093Z,44
2018-01-05T08:05:01.076Z,48
2018-01-05T08:06:10.001Z,56
2018-01-05T08:07:19.992Z,56
2018-01-05T08:08:30.123Z,64
2018-01-05T08:09:40.106Z,72
2018-01-05T08:10:50.092Z,72
2018-01-05T08:12:00.087Z,80
2018-01-05T08:13:09.802Z,84
2018-01-05T08:14:20.032Z,92
2018-01-05T08:15:30.108Z,96
2018-01-05T08:16:39.825Z,100
2018-01-05T08:17:49.811Z,108
2018-01-05T08:18:59.792Z,112
2018-01-05T08:20:09.708Z,124
2018-01-05T08:21:19.694Z,128
2018-01-05T08:22:29.679Z,136
2018-01-05T08:23:39.399Z,144
2018-01-05T08:24:49.382Z,156
2018-01-05T08:25:59.419Z,164
2018-01-05T08:27:09.134Z,176
2018-01-05T08:28:18.846Z,188
2018-01-05T08:29:28.828Z,196
2018-01-05T08:30:38.814Z,208
2018-01-05T08:31:48.895Z,216
2018-01-05T08:32:58.617Z,232
2018-01-05T08:34:08.605Z,244
2018-01-05T08:35:18.058Z,260
2018-01-05T08:36:28.041Z,276
2018-01-05T08:37:38.111Z,288
2018-01-05T08:38:47.830Z,300
2018-01-05T08:39:57.548Z,316
2018-01-05T08:41:07.267Z,328
2018-01-05T08:42:17.248Z,344
2018-01-05T08:43:26.965Z,364
2018-01-05T08:44:36.947Z,384
2018-01-05T08:45:46.944Z,404
2018-01-05T08:46:56.927Z,424
2018-01-05T08:48:06.388Z,444
2018-01-05T08:49:16.105Z,468
2018-01-05T08:50:26.089Z,492
2018-01-05T08:51:36.081Z,528
2018-01-05T08:52:45.532Z,560
2018-01-05T08:53:54.986Z,592
2018-01-05T08:55:04.751Z,624
2018-01-05T08:56:14.466Z,652
2018-01-05T08:57:24.182Z,680
2018-01-05T08:58:34.162Z,708
2018-01-05T08:59:43.612Z,732
2018-01-05T09:00:53.326Z,756
2018-01-05T09:02:03.044Z,788
2018-01-05T09:03:12.768Z,816
2018-01-05T09:04:22.757Z,844
2018-01-05T09:05:32.741Z,872
2018-01-05T09:06:42.826Z,892
2018-01-05T09:07:52.808Z,912
2018-01-05T09:09:02.535Z,932
2018-01-05T09:10:12.563Z,952
2018-01-05T09:11:22.543Z,968
2018-01-05T09:12:32.524Z,976
2018-01-05T09:13:42.504Z,976
2018-01-05T09:14:52.486Z,972
2018-01-05T09:16:02.508Z,968
2018-01-05T09:17:12.230Z,976
2018-01-05T09:18:21.951Z,980
2018-01-05T09:19:31.668Z,980
2018-01-05T09:20:41.646Z,984
2018-01-05T09:21:51.626Z,984
2018-01-05T09:23:01.345Z,980
2018-01-05T09:24:11.397Z,980
2018-01-05T09:25:21.395Z,972
2018-01-05T09:26:31.376Z,964
2018-01-05T09:27:40.835Z,956
2018-01-05T09:28:50.549Z,952
2018-01-05T09:30:00.532Z,952
2018-01-05T09:31:10.526Z,956
2018-01-05T09:32:20.507Z,956
2018-01-05T09:33:30.557Z,960
2018-01-05T09:34:40.015Z,960
2018-01-05T09:35:50.001Z,960
2018-01-05T09:36:59.716Z,956
2018-01-05T09:38:09.172Z,956
2018-01-05T09:39:19.157Z,956
2018-01-05T09:40:28.872Z,960
2018-01-05T09:41:38.860Z,968
2018-01-05T09:42:48.844Z,972
2018-01-05T09:43:58.560Z,976
2018-01-05T09:45:08.281Z,988
2018-01-05T09:46:18.263Z,1000
2018-01-05T09:47:28.247Z,1020
2018-01-05T09:48:38.244Z,1036
2018-01-05T09:49:48.220Z,1056
2018-01-05T09:50:58.250Z,1072
2018-01-05T09:52:07.972Z,1084
2018-01-05T09:53:17.953Z,1088
2018-01-05T09:54:27.936Z,1092
2018-01-05T09:55:37.920Z,1096
2018-01-05T09:56:47.897Z,1104
2018-01-05T09:57:57.876Z,1112
2018-01-05T09:59:07.649Z,1116
2018-01-05T10:00:17.677Z,1112
2018-01-05T10:01:27.395Z,1104
2018-01-05T10:02:37.409Z,1096
2018-01-05T10:03:47.396Z,1088
2018-01-05T10:04:57.384Z,1088
2018-01-05T10:06:07.110Z,1092
2018-01-05T10:07:17.094Z,1088
2018-01-05T10:08:26.815Z,1108
2018-01-05T10:09:36.275Z,1120
2018-01-05T10:10:46.275Z,1128
2018-01-05T10:11:56.274Z,1132
2018-01-05T10:13:06.260Z,1136
2018-01-05T10:14:16.244Z,1140
2018-01-05T10:15:25.962Z,1152
2018-01-05T10:16:36.066Z,1160
2018-01-05T10:17:46.048Z,1168
2018-01-05T10:18:56.053Z,1168
2018-01-05T10:20:05.784Z,1176
2018-01-05T10:21:15.240Z,1184
2018-01-05T10:22:25.227Z,1192
2018-01-05T10:23:35.217Z,1200
2018-01-05T10:24:45.251Z,1224
2018-01-05T10:25:55.236Z,1240
2018-01-05T10:27:05.230Z,1264
2018-01-05T10:28:15.218Z,1284
2018-01-05T10:29:25.203Z,1308
2018-01-05T10:30:34.949Z,1328
2018-01-05T10:31:44.942Z,1356
2018-01-05T10:32:54.983Z,1376
2018-01-05T10:34:05.424Z,1408
2018-01-05T10:35:15.408Z,1440
2018-01-05T10:36:25.127Z,1468
2018-01-05T10:37:35.135Z,1500
2018-01-05T10:38:44.850Z,1524
2018-01-05T10:39:54.902Z,1544
2018-01-05T10:41:04.889Z,1564
2018-01-05T10:42:14.879Z,1584
2018-01-05T10:43:24.604Z,1608
2018-01-05T10:44:34.595Z,1640
2018-01-05T10:45:44.582Z,1668
2018-01-05T10:46:54.619Z,1684
2018-01-05T10:48:04.070Z,1700
2018-01-05T10:49:13.790Z,1712
2018-01-05T10:50:23.507Z,1732
2018-01-05T10:51:33.231Z,1752
2018-01-05T10:52:43.220Z,1776
2018-01-05T10:53:52.939Z,1808
2018-01-05T10:55:02.922Z,1844
2018-01-05T10:56:12.648Z,1876
2018-01-05T10:57:22.739Z,1904
2018-01-05T10:58:32.724Z,1940
2018-01-05T10:59:42.715Z,1964
2018-01-05T11:00:52.437Z,1988
2018-01-05T11:02:02.431Z,2004
2018-01-05T11:03:11.884Z,2012
2018-01-05T11:04:21.600Z,2008
2018-01-05T11:05:31.589Z,2000
2018-01-05T11:06:41.579Z,1984
2018-01-05T11:07:51.565Z,1976
2018-01-05T11:09:01.548Z,1984
2018-01-05T11:10:11.581Z,1996
2018-01-05T11:11:21.303Z,2020
2018-01-05T11:12:31.286Z,2048
2018-01-05T11:13:41.270Z,2076
2018-01-05T11:14:51.265Z,2104
2018-01-05T11:16:01.250Z,2136
2018-01-05T11:17:10.972Z,2160
2018-01-05T11:18:20.702Z,2180
2018-01-05T11:19:30.692Z,2196
2018-01-05T11:20:40.679Z,2204
2018-01-05T11:21:50.401Z,2220
2018-01-05T11:23:00.384Z,2236
2018-01-05T11:24:09.837Z,2240
2018-01-05T11:25:19.820Z,2240
2018-01-05T11:26:29.800Z,2232
2018-01-05T11:27:39.519Z,2220
2018-01-05T11:28:49.526Z,2212
2018-01-05T11:29:59.248Z,2204
2018-01-05T11:31:09.237Z,2204
2018-01-05T11:32:19.220Z,2208
2018-01-05T11:33:29.207Z,2220
2018-01-05T11:34:39.256Z,2232
2018-01-05T11:35:49.238Z,2248
2018-01-05T11:36:58.690Z,2268
2018-01-05T11:38:07.880Z,2280
2018-01-05T11:39:17.599Z,2292
2018-01-05T11:40:27.579Z,2308
2018-01-05T11:41:37.302Z,2316
2018-01-05T11:42:47.359Z,2320
2018-01-05T11:43:57.342Z,2328
2018-01-05T11:45:06.811Z,2348
2018-01-05T11:46:16.532Z,2368
2018-01-05T11:47:26.533Z,2388
2018-01-05T11:48:36.514Z,2416
2018-01-05T11:49:46.232Z,2456
2018-01-05T11:50:56.219Z,2520
2018-01-05T11:52:05.943Z,2608
2018-01-05T11:53:15.395Z,2680
2018-01-05T11:54:25.111Z,2720
2018-01-05T11:55:35.147Z,2748
2018-01-05T11:56:44.872Z,2776
2018-01-05T11:57:54.871Z,2784
2018-01-05T11:59:04.861Z,2756
2018-01-05T12:00:14.853Z,2716
2018-01-05T12:01:24.576Z,2684
2018-01-05T12:02:34.560Z,2668
2018-01-05T12:03:44.547Z,2648
2018-01-05T12:04:54.537Z,2632
2018-01-05T12:06:04.254Z,2604
2018-01-05T12:07:14.244Z,2596
2018-01-05T12:08:23.966Z,2600
2018-01-05T12:09:33.954Z,2592
2018-01-05T12:10:43.935Z,2560
2018-01-05T12:11:53.657Z,2532
2018-01-05T12:13:03.376Z,2496
2018-01-05T12:14:13.414Z,2456
2018-01-05T12:15:23.133Z,2412
2018-01-05T12:16:33.115Z,2368
2018-01-05T12:17:42.834Z,2336
2018-01-05T12:18:52.816Z,2320
2018-01-05T12:20:02.535Z,2300
2018-01-05T12:21:12.252Z,2280
2018-01-05T12:22:22.237Z,2268
2018-01-05T12:23:31.954Z,2260
2018-01-05T12:24:41.671Z,2276
2018-01-05T12:25:51.398Z,2280
2018-01-05T12:27:01.133Z,2252
2018-01-05T12:28:10.855Z,2204
2018-01-05T12:29:20.845Z,2184
2018-01-05T12:30:30.924Z,2164
2018-01-05T12:31:40.645Z,2152
2018-01-05T12:32:50.097Z,2152
2018-01-05T12:33:59.826Z,2144
2018-01-05T12:35:09.546Z,2132
2018-01-05T12:36:19.530Z,2132
2018-01-05T12:37:29.515Z,2124
2018-01-05T12:38:39.497Z,2112
2018-01-05T12:39:49.481Z,2096
2018-01-05T12:40:59.470Z,2108
2018-01-05T12:42:08.930Z,2120
2018-01-05T12:43:18.913Z,2132
2018-01-05T12:44:28.897Z,2164
2018-01-05T12:45:38.623Z,2208
2018-01-05T12:46:48.605Z,2252
2018-01-05T12:47:58.598Z,2284
2018-01-05T12:49:08.649Z,2336
2018-01-05T12:50:18.642Z,2368
2018-01-05T12:51:28.368Z,2412
2018-01-05T12:52:38.086Z,2464
2018-01-05T12:53:48.070Z,2488
2018-01-05T12:54:58.064Z,2492
2018-01-05T12:56:07.521Z,2496
2018-01-05T12:57:17.505Z,2496
2018-01-05T12:58:27.488Z,2472
2018-01-05T12:59:37.522Z,2452
2018-01-05T13:00:47.510Z,2464
2018-01-05T13:01:57.495Z,2456
2018-01-05T13:03:07.212Z,2412
2018-01-05T13:04:16.937Z,2388
2018-01-05T13:05:26.923Z,2360
2018-01-05T13:06:36.904Z,2332
2018-01-05T13:07:46.621Z,2288
2018-01-05T13:08:56.339Z,2208
2018-01-05T13:10:06.327Z,2128
2018-01-05T13:11:16.309Z,2096
2018-01-05T13:12:26.300Z,2068
2018-01-05T13:13:36.282Z,2016
2018-01-05T13:14:46.271Z,1984
2018-01-05T13:15:56.254Z,1952
2018-01-05T13:17:05.975Z,1896
2018-01-05T13:18:15.968Z,1852
2018-01-05T13:19:25.421Z,1848
2018-01-05T13:20:35.138Z,1868
2018-01-05T13:21:44.857Z,1864
2018-01-05T13:22:54.861Z,1824
2018-01-05T13:24:04.855Z,1792
2018-01-05T13:25:14.839Z,1772
2018-01-05T13:26:24.826Z,1716
2018-01-05T13:27:34.815Z,1664
2018-01-05T13:28:44.802Z,1636
2018-01-05T13:29:54.789Z,1620
2018-01-05T13:31:04.511Z,1592
2018-01-05T13:32:14.229Z,1552
2018-01-05T13:33:24.216Z,1520
2018-01-05T13:34:33.769Z,1500
2018-01-05T13:35:43.752Z,1492
2018-01-05T13:36:53.734Z,1492
2018-01-05T13:38:03.455Z,1472
2018-01-05T13:39:12.910Z,1444
2018-01-05T13:40:22.095Z,1432
2018-01-05T13:41:32.086Z,1416
2018-01-05T13:42:41.803Z,1380
2018-01-05T13:43:51.788Z,1336
2018-01-05T13:45:01.512Z,1312
2018-01-05T13:46:10.970Z,1284
2018-01-05T13:47:20.950Z,1264
2018-01-05T13:48:30.407Z,1236
2018-01-05T13:49:40.125Z,1196
2018-01-05T13:50:50.109Z,1156
2018-01-05T13:52:00.099Z,1112
2018-01-05T13:53:10.085Z,1076
2018-01-05T13:54:19.806Z,1040
2018-01-05T13:55:29.798Z,1000
2018-01-05T13:56:39.252Z,968
2018-01-05T13:57:49.235Z,932
2018-01-05T13:58:59.218Z,900
2018-01-05T14:00:08.414Z,864
2018-01-05T14:01:18.400Z,828
2018-01-05T14:02:28.121Z,788
2018-01-05T14:03:38.101Z,752
2018-01-05T14:04:48.085Z,712
2018-01-05T14:05:58.068Z,680
2018-01-05T14:07:07.520Z,648
2018-01-05T14:08:17.645Z,616
2018-01-05T14:09:27.362Z,592
2018-01-05T14:10:37.348Z,564
2018-01-05T14:11:47.331Z,540
2018-01-05T14:12:57.312Z,516
2018-01-05T14:14:07.338Z,492
2018-01-05T14:15:17.323Z,468
2018-01-05T14:16:27.316Z,440
2018-01-05T14:17:37.303Z,416
2018-01-05T14:18:47.303Z,392
2018-01-05T14:19:57.287Z,368
2018-01-05T14:21:07.269Z,344
2018-01-05T14:22:17.257Z,324
2018-01-05T14:23:27.346Z,304
2018-01-05T14:24:37.326Z,288
2018-01-05T14:25:47.307Z,272
2018-01-05T14:26:57.544Z,252
2018-01-05T14:28:06.999Z,236
2018-01-05T14:29:16.719Z,224
2018-01-05T14:30:26.710Z,208
2018-01-05T14:31:36.435Z,196
2018-01-05T14:32:46.470Z,180
2018-01-05T14:33:56.466Z,168
2018-01-05T14:35:06.450Z,160
2018-01-05T14:36:16.432Z,144
2018-01-05T14:37:26.423Z,132
2018-01-05T14:38:36.139Z,124
2018-01-05T14:39:46.126Z,116
2018-01-05T14:40:55.583Z,104
2018-01-05T14:42:05.582Z,100
2018-01-05T14:43:15.306Z,88
2018-01-05T14:44:25.294Z,80
2018-01-05T14:45:35.021Z,76
2018-01-05T14:46:45.004Z,68
2018-01-05T14:47:54.728Z,60
2018-01-05T14:49:04.719Z,56
2018-01-05T14:50:14.717Z,48
2018-01-05T14:51:24.441Z,44
2018-01-05T14:52:34.462Z,40
2018-01-05T14:53:44.447Z,36
2018-01-05T14:54:54.429Z,32
2018-01-05T14:56:04.412Z,28
2018-01-05T14:57:14.404Z,28
2018-01-05T14:58:24.390Z,24
2018-01-05T14:59:34.104Z,20
2018-01-05T15:00:44.084Z,16
2018-01-05T15:01:54.062Z,16
2018-01-05T15:03:04.043Z,12
2018-01-05T15:04:14.032Z,12
2018-01-05T15:05:24.021Z,8
2018-01-05T15:06:34.008Z,8
2018-01-05T15:07:43.723Z,8
2018-01-05T15:08:53.701Z,8
2018-01-05T15:10:03.425Z,8
2018-01-05T15:11:12.877Z,4
2018-01-05T15:12:22.904Z,8
2018-01-05T15:13:32.887Z,4
2018-01-05T15:14:42.872Z,4
2018-01-05T15:15:52.632Z,4
2018-01-05T15:17:02.358Z,4
2018-01-05T15:18:12.076Z,4
2018-01-05T15:19:22.057Z,0
2018-01-05T15:20:31.776Z,0
2018-01-05T15:21:41.762Z,4
2018-01-05T15:22:51.478Z,4
2018-01-05T15:24:00.929Z,4
2018-01-05T15:25:10.913Z,0
2018-01-05T15:26:20.896Z,0
2018-01-05T15:27:30.884Z,0
2018-01-05T15:28:40.865Z,0
2018-01-05T15:29:50.908Z,0
2018-01-05T15:31:00.356Z,0
2018-01-05T15:32:10.076Z,0
2018-01-05T15:33:19.794Z,0
2018-01-05T15:34:29.508Z,0
2018-01-05T15:35:39.495Z,0
2018-01-05T15:36:49.550Z,0
2018-01-05T15:37:59.265Z,0
2018-01-05T15:39:08.789Z,0
2018-01-05T15:40:18.769Z,0
2018-01-05T15:41:28.763Z,0
2018-01-05T15:42:38.750Z,0
2018-01-05T15:43:48.727Z,0
2018-01-05T15:44:58.715Z,0
2018-01-05T15:46:08.745Z,0
2018-01-05T15:47:18.731Z,0
2018-01-05T15:48:28.710Z,0
2018-01-05T15:49:38.695Z,0
2018-01-05T15:50:48.677Z,0
2018-01-05T15:51:58.396Z,0
2018-01-05T15:53:08.117Z,0
2018-01-05T15:54:18.101Z,0
2018-01-05T15:55:28.083Z,0
2018-01-05T15:56:37.798Z,0
2018-01-05T15:57:47.788Z,0
2018-01-05T15:58:57.770Z,0
2018-01-05T16:00:06.957Z,0
2018-01-05T16:01:16.677Z,0
2018-01-05T16:02:26.661Z,0
2018-01-05T16:03:36.644Z,0
2018-01-05T16:04:46.629Z,0
2018-01-05T16:05:56.616Z,0
2018-01-05T16:07:06.608Z,0
2018-01-05T16:08:16.586Z,0
2018-01-05T16:09:26.568Z,0
2018-01-05T16:10:36.282Z,0
2018-01-05T16:11:46.264Z,0
2018-01-05T16:12:56.245Z,0
2018-01-05T16:14:06.268Z,0
2018-01-05T16:15:16.257Z,0
2018-01-05T16:16:26.240Z,0
2018-01-05T16:17:36.217Z,0
2018-01-05T16:18:46.201Z,0
2018-01-05T16:19:55.915Z,0
2018-01-05T16:21:05.640Z,0
2018-01-05T16:22:15.363Z,0
2018-01-05T16:23:25.352Z,0
2018-01-05T16:24:35.339Z,0
2018-01-05T16:25:45.323Z,0
2018-01-05T16:26:55.353Z,0
2018-01-05T16:28:05.378Z,0
2018-01-05T16:29:15.359Z,0
2018-01-05T16:30:25.076Z,0
2018-01-05T16:31:35.065Z,0
2018-01-05T16:32:45.047Z,0
2018-01-05T16:33:55.025Z,0
2018-01-05T16:35:05.107Z,0
2018-01-05T16:36:15.091Z,0